| Date | Time | Temp. (oF) | Dew Point (oF) | Rel. Hum. (%) | Press. (in.) | Wind Dir. (deg.) | Wind Speed (mph) | Hourly Rainfall (i n.) |
|
|---|---|---|---|---|---|---|---|---|---|
| 1 | 06/17 | 24:00 | 67 | 56 | 69 | 30.22 | 30 | 0 | 0.00 |
| 2 | 06/16 | 23:00 | 67 | 55 | 67 | 30.22 | 30 | 0 | 0.00 |
| 3 | 06/16 | 22:00 | 67 | 55 | 66 | 30.22 | 30 | 0 | 0.00 |
| 4 | 06/16 | 21:00 | 68 | 53 | 61 | 30.19 | 30 | 0 | 0.00 |
| 5 | 06/16 | 20:00 | 69 | 53 | 58 | 30.15 | 30 | 0 | 0.00 |
| 6 | 06/16 | 19:00 | 70 | 51 | 53 | 30.13 | 30 | 0 | 0.00 |
| 7 | 06/16 | 18:00 | 72 | 52 | 51 | 30.17 | 30 | 0 | 0.00 |
| 8 | 06/16 | 17:00 | 74 | 52 | 48 | 30.18 | 50 | 2 | 0.00 |
| 9 | 06/16 | 16:00 | 76 | 52 | 45 | 30.20 | 210 | 0 | 0.00 |
| 10 | 06/16 | 15:00 | 77 | 52 | 43 | 30.20 | 330 | 2 | 0.00 |
| 11 | 06/16 | 14:00 | 76 | 52 | 45 | 30.21 | 310 | 7 | 0.00 |
| 12 | 06/16 | 13:00 | 72 | 50 | 47 | 30.22 | 50 | 2 | 0.00 |
| 13 | 06/16 | 12:00 | 70 | 49 | 48 | 30.25 | 10 | 4 | 0.00 |
| 14 | 06/16 | 11:00 | 70 | 49 | 48 | 30.27 | 330 | 6 | 0.00 |
| 15 | 06/16 | 10:00 | 65 | 48 | 56 | 30.28 | 350 | 2 | 0.00 |
| 16 | 06/16 | 09:00 | 61 | 46 | 58 | 30.28 | 290 | 4 | 0.00 |
| 17 | 06/16 | 08:00 | 58 | 44 | 61 | 30.27 | 360 | 1 | 0.00 |
| 18 | 06/16 | 07:00 | 57 | 44 | 64 | 30.32 | 290 | 2 | 0.00 |
| 19 | 06/16 | 06:00 | 58 | 44 | 60 | 30.32 | 330 | 1 | 0.00 |
| 20 | 06/16 | 05:00 | 60 | 45 | 58 | 30.31 | 340 | 6 | 0.00 |
| 21 | 06/16 | 04:00 | 60 | 44 | 57 | 30.30 | 50 | 0 | 0.00 |
| 22 | 06/16 | 03:00 | 61 | 46 | 59 | 30.30 | 10 | 2 | 0.00 |
| 23 | 06/16 | 02:00 | 63 | 46 | 55 | 30.29 | 300 | 1 | 0.00 |
| 24 | 06/16 | 01:00 | 64 | 48 | 58 | 30.29 | 10 | 1 | 0.00 |